Time;durP1;ratioP1;P1;durP2;ratioP2;P2;SDS_P1;SDS_P2;PMS_P1;PMS_P2;Temp;Humidity;BMP_temperature;BMP_pressure;BME280_temperature;BME280_humidity;BME280_pressure;Samples;Min_cycle;Max_cycle;Signal;HPM_P1;HPM_P2
2021/04/06 04:02:27;;;;;;;3.28;2.42;;;1.20;99.90;;;;;;4996767;23;20835;-70
2021/04/06 04:04:55;;;;;;;4.70;2.90;;;1.10;99.90;;;;;;4897389;29;20620;-69
2021/04/06 04:07:22;;;;;;;5.05;3.13;;;1.20;99.90;;;;;;4896948;29;20203;-70
2021/04/06 04:09:48;;;;;;;8.43;3.63;;;1.10;99.90;;;;;;4897507;29;20231;-70
2021/04/06 04:12:14;;;;;;;3.85;3.13;;;1.10;99.90;;;;;;4893083;29;20570;-70
2021/04/06 04:14:41;;;;;;;8.10;2.63;;;1.10;99.90;;;;;;4878455;29;20207;-73
2021/04/06 04:17:08;;;;;;;7.18;3.17;;;1.10;99.90;;;;;;4879503;29;20706;-73
2021/04/06 04:19:35;;;;;;;5.97;3.30;;;1.10;99.90;;;;;;4891342;29;20200;-74
2021/04/06 04:22:01;;;;;;;4.72;3.35;;;1.10;99.90;;;;;;4879588;29;20292;-74
2021/04/06 04:24:27;;;;;;;3.88;2.72;;;1.00;99.90;;;;;;4885742;29;20358;-72
2021/04/06 04:26:53;;;;;;;3.55;2.65;;;1.00;99.90;;;;;;4881162;29;20242;-71
2021/04/06 04:29:20;;;;;;;8.80;4.13;;;1.00;99.90;;;;;;4886910;29;20701;-72
2021/04/06 04:31:48;;;;;;;3.30;2.70;;;1.00;99.90;;;;;;4881497;29;20232;-71
2021/04/06 04:34:15;;;;;;;6.18;3.25;;;0.90;99.90;;;;;;4888200;29;20290;-72
2021/04/06 04:36:42;;;;;;;3.08;2.88;;;0.90;99.90;;;;;;4900585;29;20716;-71
2021/04/06 04:39:08;;;;;;;12.15;3.17;;;0.90;99.90;;;;;;4896446;29;20212;-72
2021/04/06 04:41:35;;;;;;;3.45;2.97;;;1.00;99.90;;;;;;4882757;29;20263;-71
2021/04/06 04:44:01;;;;;;;2.83;2.60;;;1.00;99.90;;;;;;4899638;29;20248;-72
2021/04/06 04:46:28;;;;;;;5.30;2.60;;;1.10;99.90;;;;;;4903571;29;20222;-71
2021/04/06 04:48:55;;;;;;;4.80;2.47;;;1.20;99.90;;;;;;4900747;29;20573;-72
2021/04/06 04:51:21;;;;;;;5.07;2.58;;;1.20;99.90;;;;;;4902561;29;20253;-72
2021/04/06 04:53:49;;;;;;;3.30;2.90;;;1.30;99.90;;;;;;4895065;29;20200;-72
2021/04/06 04:56:15;;;;;;;2.80;2.38;;;1.40;99.90;;;;;;4890311;29;20694;-71
2021/04/06 04:58:41;;;;;;;2.83;2.00;;;1.50;99.90;;;;;;4899498;29;20676;-73
2021/04/06 05:01:07;;;;;;;9.25;3.20;;;1.60;99.90;;;;;;4898258;29;20234;-73
2021/04/06 05:03:34;;;;;;;2.90;2.80;;;1.60;99.90;;;;;;4886783;29;20606;-70
2021/04/06 05:06:00;;;;;;;2.72;2.53;;;1.60;99.90;;;;;;4884892;29;20283;-69
2021/04/06 05:08:27;;;;;;;4.10;2.65;;;1.60;99.90;;;;;;4881365;29;20220;-70
2021/04/06 05:10:54;;;;;;;4.00;1.95;;;1.60;99.90;;;;;;4884922;29;20315;-69
2021/04/06 05:13:20;;;;;;;5.32;1.92;;;1.70;99.90;;;;;;4892847;29;20216;-70
2021/04/06 05:15:46;;;;;;;3.50;3.00;;;1.70;99.90;;;;;;4895923;29;20671;-69
2021/04/06 05:18:12;;;;;;;4.00;3.08;;;1.60;99.90;;;;;;4900605;29;20215;-72
2021/04/06 05:20:38;;;;;;;2.63;2.42;;;1.60;99.90;;;;;;4897108;29;20220;-71
2021/04/06 05:23:05;;;;;;;4.75;2.45;;;1.60;99.90;;;;;;4899491;29;20204;-70
2021/04/06 05:25:31;;;;;;;3.88;2.50;;;1.50;99.90;;;;;;4895952;29;20207;-69
2021/04/06 05:27:58;;;;;;;4.53;3.72;;;1.50;99.90;;;;;;4900310;29;20231;-70
2021/04/06 05:30:25;;;;;;;2.55;2.45;;;1.60;99.90;;;;;;4895645;29;20231;-69
2021/04/06 05:32:51;;;;;;;2.58;2.22;;;1.70;99.90;;;;;;4899434;29;20307;-71
2021/04/06 05:35:17;;;;;;;2.72;2.58;;;1.90;99.90;;;;;;4896827;29;20647;-72
2021/04/06 05:37:43;;;;;;;7.65;3.25;;;2.20;99.90;;;;;;4897128;29;20216;-74
2021/04/06 05:40:10;;;;;;;3.22;2.47;;;2.30;99.90;;;;;;4889291;29;20207;-73
2021/04/06 05:42:36;;;;;;;3.40;2.88;;;2.20;99.90;;;;;;4894496;29;20211;-73
2021/04/06 05:45:05;;;;;;;5.13;2.10;;;2.20;99.90;;;;;;4893299;29;20204;-73
2021/04/06 05:47:36;;;;;;;6.28;3.08;;;2.00;99.90;;;;;;4881041;29;20550;-73
2021/04/06 05:50:03;;;;;;;7.75;2.67;;;2.00;99.90;;;;;;4874716;29;20223;-74
2021/04/06 05:52:30;;;;;;;5.93;2.58;;;1.90;99.90;;;;;;4894853;29;20223;-71
2021/04/06 05:54:58;;;;;;;3.00;2.60;;;1.90;99.90;;;;;;4896718;29;20210;-71
2021/04/06 05:57:24;;;;;;;2.35;2.20;;;1.90;99.90;;;;;;4899407;29;20219;-71
2021/04/06 05:59:50;;;;;;;7.32;3.10;;;1.90;99.90;;;;;;4898696;29;20207;-71
2021/04/06 06:02:17;;;;;;;10.38;2.83;;;1.80;99.90;;;;;;4882792;29;20763;-71
2021/04/06 06:04:43;;;;;;;4.03;2.45;;;2.00;99.90;;;;;;4895768;29;20236;-71
2021/04/06 06:07:11;;;;;;;3.90;2.47;;;2.00;99.90;;;;;;4895575;29;20215;-71
2021/04/06 06:09:37;;;;;;;7.28;2.85;;;2.10;99.90;;;;;;4893689;29;20266;-71
2021/04/06 06:12:06;;;;;;;3.88;3.00;;;2.20;99.90;;;;;;4896743;29;20591;-71
2021/04/06 06:14:34;;;;;;;5.53;3.78;;;2.30;99.90;;;;;;4886715;29;20204;-71
2021/04/06 06:17:14;;;;;;;3.55;3.22;;;2.30;99.90;;;;;;4880864;29;20630;-71
2021/04/06 06:19:42;;;;;;;2.92;2.47;;;2.40;99.90;;;;;;4886113;29;20633;-71
2021/04/06 06:22:14;;;;;;;4.53;3.38;;;2.40;99.90;;;;;;4880438;29;20235;-71
2021/04/06 06:24:44;;;;;;;4.38;3.17;;;2.40;99.90;;;;;;4880974;29;20279;-73
2021/04/06 06:27:23;;;;;;;4.38;2.40;;;2.50;99.90;;;;;;4894126;29;20207;-71
2021/04/06 06:29:50;;;;;;;5.45;2.63;;;2.50;99.90;;;;;;4861995;29;20236;-71
2021/04/06 06:32:21;;;;;;;6.43;3.60;;;2.50;99.90;;;;;;4876899;29;20713;-71
2021/04/06 06:34:49;;;;;;;5.13;2.35;;;2.60;99.90;;;;;;4898641;29;20208;-70
2021/04/06 06:37:18;;;;;;;3.65;3.20;;;2.80;99.90;;;;;;4885016;29;20208;-71
2021/04/06 06:39:55;;;;;;;5.75;2.45;;;3.00;99.90;;;;;;4897222;29;20204;-71
2021/04/06 06:42:24;;;;;;;3.45;2.15;;;3.00;99.90;;;;;;4896572;29;20228;-71
2021/04/06 06:44:51;;;;;;;3.35;3.05;;;3.00;99.90;;;;;;4898326;29;20659;-70
2021/04/06 06:47:20;;;;;;;8.00;2.20;;;3.20;99.90;;;;;;4887734;29;20684;-72
2021/04/06 06:49:51;;;;;;;3.10;2.22;;;3.30;99.90;;;;;;4899709;29;20326;-71
2021/04/06 06:52:28;;;;;;;4.35;1.92;;;3.40;99.90;;;;;;4896156;29;20707;-71
2021/04/06 06:54:58;;;;;;;6.68;3.33;;;3.40;99.90;;;;;;4899406;29;20724;-71
2021/04/06 06:57:29;;;;;;;2.70;2.50;;;3.50;99.90;;;;;;4887740;29;20358;-72
2021/04/06 07:00:07;;;;;;;2.85;1.90;;;3.40;99.90;;;;;;4899627;29;20221;-71
2021/04/06 07:02:33;;;;;;;4.32;2.58;;;3.40;99.90;;;;;;4893506;29;20567;-72
2021/04/06 07:05:16;;;;;;;11.90;2.83;;;3.40;99.90;;;;;;4880507;29;20208;-71
2021/04/06 07:07:57;;;;;;;8.05;2.28;;;3.50;99.90;;;;;;4890132;29;20215;-71
2021/04/06 07:10:25;;;;;;;4.53;3.17;;;3.70;99.90;;;;;;4881489;29;20355;-72
2021/04/06 07:13:05;;;;;;;5.60;2.40;;;3.80;99.90;;;;;;4877882;29;20528;-71
2021/04/06 07:15:34;;;;;;;3.58;2.10;;;4.00;99.90;;;;;;4880764;29;20211;-72
2021/04/06 07:18:04;;;;;;;8.27;2.55;;;4.10;99.90;;;;;;4879779;29;20200;-73
2021/04/06 07:20:33;;;;;;;4.60;1.88;;;4.20;99.90;;;;;;4893900;29;20651;-74
2021/04/06 07:23:02;;;;;;;3.70;2.40;;;4.30;99.90;;;;;;4885075;29;20216;-74
2021/04/06 07:25:30;;;;;;;4.50;1.88;;;4.30;99.90;;;;;;4898439;29;20267;-74
2021/04/06 07:27:57;;;;;;;4.65;2.30;;;4.20;99.90;;;;;;4895819;29;20212;-75
2021/04/06 07:30:24;;;;;;;7.35;2.53;;;4.10;99.90;;;;;;4879021;29;20228;-74
2021/04/06 07:32:52;;;;;;;2.17;2.03;;;4.10;99.90;;;;;;4884867;29;20207;-74
2021/04/06 07:35:19;;;;;;;5.95;2.45;;;4.10;99.90;;;;;;4870234;29;20567;-74
2021/04/06 07:37:47;;;;;;;3.90;2.35;;;4.30;99.90;;;;;;4897550;29;20263;-74
2021/04/06 07:40:16;;;;;;;11.55;3.95;;;4.30;99.90;;;;;;4880089;29;20569;-74
2021/04/06 07:42:45;;;;;;;5.93;2.60;;;4.20;99.90;;;;;;4894090;29;20234;-74
2021/04/06 07:45:44;;;;;;;5.05;2.13;;;4.20;99.90;;;;;;4897180;29;20246;-74
2021/04/06 07:48:13;;;;;;;5.20;1.90;;;4.30;99.90;;;;;;4897080;29;20218;-74
2021/04/06 07:50:42;;;;;;;5.78;1.95;;;4.50;99.90;;;;;;4891692;29;20303;-74
2021/04/06 07:53:24;;;;;;;3.28;2.45;;;4.40;99.90;;;;;;4881631;29;20212;-74
2021/04/06 07:55:51;;;;;;;14.60;3.25;;;4.70;99.90;;;;;;4861477;29;20311;-74
2021/04/06 07:58:46;;;;;;;8.80;2.70;;;4.80;99.90;;;;;;4893171;29;20211;-73
2021/04/06 08:01:17;;;;;;;7.82;2.55;;;4.90;99.90;;;;;;4894581;29;20228;-74
2021/04/06 08:04:03;;;;;;;8.40;2.20;;;4.90;99.90;;;;;;4867522;29;20216;-70
2021/04/06 08:06:40;;;;;;;4.68;2.10;;;5.00;99.90;;;;;;4896510;29;20215;-71
2021/04/06 08:09:42;;;;;;;3.47;1.75;;;5.10;99.90;;;;;;4879689;29;20216;-70
2021/04/06 08:12:10;;;;;;;6.88;1.85;;;5.20;99.90;;;;;;4886150;29;20763;-70
2021/04/06 08:14:39;;;;;;;4.03;1.77;;;5.40;99.90;;;;;;4876373;29;20219;-71
2021/04/06 08:17:41;;;;;;;8.95;2.65;;;5.50;99.90;;;;;;4879082;29;20326;-71
2021/04/06 08:20:17;;;;;;;6.57;2.00;;;5.50;99.90;;;;;;4880027;29;20204;-69
2021/04/06 08:22:49;;;;;;;4.95;2.45;;;5.70;99.90;;;;;;4878479;29;20665;-69
2021/04/06 08:25:41;;;;;;;7.55;1.95;;;5.80;99.90;;;;;;4880188;29;20223;-70
2021/04/06 08:28:29;;;;;;;4.00;1.90;;;5.60;99.90;;;;;;4882570;29;20204;-71
2021/04/06 08:31:17;;;;;;;3.03;2.22;;;5.40;99.90;;;;;;4879968;29;20243;-71
2021/04/06 08:33:44;;;;;;;7.25;4.45;;;5.40;99.90;;;;;;4894286;29;20230;-71
2021/04/06 08:36:11;;;;;;;6.18;2.53;;;5.40;99.90;;;;;;4890138;29;20216;-71
2021/04/06 08:38:44;;;;;;;3.03;1.63;;;5.40;99.90;;;;;;4882085;29;20232;-70
2021/04/06 08:41:13;;;;;;;1.50;1.40;;;5.20;99.90;;;;;;4878670;29;20232;-71
2021/04/06 08:43:43;;;;;;;1.95;1.35;;;5.00;99.90;;;;;;4877436;29;20224;-70
2021/04/06 08:46:11;;;;;;;1.75;1.65;;;4.90;99.90;;;;;;4878155;29;20226;-70
2021/04/06 08:48:50;;;;;;;3.22;2.05;;;4.90;99.90;;;;;;4883264;29;20208;-70
2021/04/06 08:51:21;;;;;;;3.47;1.92;;;4.70;99.90;;;;;;4878432;29;20322;-70
2021/04/06 08:53:47;;;;;;;16.23;7.20;;;4.70;99.90;;;;;;4874369;29;20234;-70
2021/04/06 08:56:15;;;;;;;1.95;1.85;;;4.70;99.90;;;;;;4878197;29;20835;-69
2021/04/06 08:58:41;;;;;;;1.77;1.30;;;4.90;99.90;;;;;;4886463;29;20298;-69
2021/04/06 09:01:08;;;;;;;1.40;1.20;;;4.90;99.90;;;;;;4877786;29;20235;-69
2021/04/06 09:03:35;;;;;;;1.60;0.80;;;4.80;99.90;;;;;;4885455;29;20668;-69
2021/04/06 09:06:10;;;;;;;3.60;1.00;;;4.80;99.90;;;;;;4895024;29;20664;-70
2021/04/06 09:08:54;;;;;;;2.10;2.00;;;4.80;99.90;;;;;;4878556;29;20679;-70
2021/04/06 09:11:23;;;;;;;3.58;1.77;;;4.80;99.90;;;;;;4892569;29;20290;-70
2021/04/06 09:13:50;;;;;;;3.25;1.33;;;4.70;99.90;;;;;;4892199;29;20203;-70
2021/04/06 09:16:22;;;;;;;3.70;1.77;;;4.80;99.90;;;;;;4886846;29;20216;-70
2021/04/06 09:18:53;;;;;;;2.95;1.33;;;4.90;99.90;;;;;;4879294;29;20245;-72
2021/04/06 09:21:22;;;;;;;2.80;1.60;;;5.00;99.90;;;;;;4884964;29;20231;-72
2021/04/06 09:23:51;;;;;;;3.17;1.98;;;5.10;99.90;;;;;;4886940;29;20204;-72
2021/04/06 09:26:17;;;;;;;4.38;2.05;;;5.30;99.90;;;;;;4893304;29;20204;-73
2021/04/06 09:28:44;;;;;;;3.22;1.50;;;5.70;99.90;;;;;;4894161;29;20204;-72
2021/04/06 09:31:10;;;;;;;3.58;2.17;;;5.90;99.90;;;;;;4894854;29;20235;-72
2021/04/06 09:33:37;;;;;;;2.33;1.42;;;6.10;99.90;;;;;;4890843;29;20302;-72
2021/04/06 09:36:11;;;;;;;6.75;1.67;;;6.10;99.90;;;;;;4893619;29;20225;-72
2021/04/06 09:38:39;;;;;;;7.57;1.40;;;6.00;99.90;;;;;;4888273;29;20547;-72
2021/04/06 09:41:08;;;;;;;2.83;2.60;;;6.00;99.90;;;;;;4891085;29;20228;-72
2021/04/06 09:43:35;;;;;;;2.45;1.20;;;6.00;99.90;;;;;;4890702;29;20207;-72
2021/04/06 09:46:01;;;;;;;2.35;1.45;;;6.00;99.90;;;;;;4891729;29;20211;-72
2021/04/06 09:48:28;;;;;;;3.05;1.40;;;6.10;99.90;;;;;;4899114;29;20234;-73
2021/04/06 09:50:59;;;;;;;4.50;1.60;;;6.00;99.90;;;;;;4896734;29;20259;-72
2021/04/06 09:53:26;;;;;;;5.13;1.65;;;6.00;99.90;;;;;;4896166;29;20218;-70
2021/04/06 09:55:55;;;;;;;4.68;1.42;;;6.00;99.90;;;;;;4880950;29;20219;-70
2021/04/06 09:58:22;;;;;;;4.10;1.30;;;6.30;99.90;;;;;;4888309;29;20626;-70
2021/04/06 10:00:48;;;;;;;3.25;1.98;;;6.40;99.90;;;;;;4890253;29;20711;-70
2021/04/06 10:03:23;;;;;;;2.78;1.50;;;6.50;99.90;;;;;;4887807;29;20208;-71
2021/04/06 10:05:50;;;;;;;7.93;1.50;;;6.70;99.90;;;;;;4872497;29;20590;-70
2021/04/06 10:08:27;;;;;;;3.17;1.30;;;6.60;99.90;;;;;;4889617;29;20570;-70
2021/04/06 10:10:54;;;;;;;0.90;0.90;;;6.60;99.90;;;;;;4897450;29;20366;-70
2021/04/06 10:13:20;;;;;;;2.28;1.42;;;6.70;99.90;;;;;;4897117;29;20571;-71
2021/04/06 10:15:47;;;;;;;2.05;0.95;;;7.00;99.90;;;;;;4894699;29;20275;-71
2021/04/06 10:18:15;;;;;;;0.75;0.75;;;7.00;99.90;;;;;;4899393;29;20211;-69
2021/04/06 10:20:43;;;;;;;0.85;0.60;;;6.90;99.90;;;;;;4885882;29;20223;-70
2021/04/06 10:23:11;;;;;;;2.08;0.57;;;6.70;99.90;;;;;;4894645;29;20227;-70
2021/04/06 10:25:40;;;;;;;7.15;2.08;;;6.50;99.90;;;;;;4888800;29;20211;-68
2021/04/06 10:28:09;;;;;;;0.73;0.65;;;6.50;99.90;;;;;;4892322;29;20208;-68
2021/04/06 10:30:38;;;;;;;0.50;0.50;;;6.70;99.90;;;;;;4882824;29;20760;-68
2021/04/06 10:33:06;;;;;;;0.75;0.75;;;6.80;99.90;;;;;;4887860;29;20207;-69
2021/04/06 10:35:35;;;;;;;2.95;1.30;;;6.80;99.90;;;;;;4881019;29;20200;-69
2021/04/06 10:38:04;;;;;;;2.05;1.40;;;6.80;99.90;;;;;;4884592;29;20216;-69
2021/04/06 10:40:37;;;;;;;2.05;1.20;;;6.90;99.90;;;;;;4881631;29;20224;-69
2021/04/06 10:43:08;;;;;;;2.42;1.23;;;6.60;99.90;;;;;;4883766;29;20283;-70
2021/04/06 10:45:36;;;;;;;1.33;1.10;;;6.50;99.90;;;;;;4879833;29;20243;-70
2021/04/06 10:48:12;;;;;;;2.28;1.17;;;6.50;99.90;;;;;;4880610;29;20542;-70
2021/04/06 10:50:44;;;;;;;3.85;1.08;;;6.70;99.90;;;;;;4896840;29;20648;-70
2021/04/06 10:53:25;;;;;;;2.08;1.02;;;6.60;99.90;;;;;;4893068;29;20228;-70
2021/04/06 10:55:54;;;;;;;1.92;0.90;;;6.80;99.90;;;;;;4879045;29;20303;-69
2021/04/06 10:58:23;;;;;;;1.58;1.25;;;6.70;99.90;;;;;;4896409;29;20583;-70
2021/04/06 11:00:59;;;;;;;1.10;0.88;;;6.40;99.90;;;;;;4884685;29;20227;-70
2021/04/06 11:03:35;;;;;;;2.42;1.30;;;6.20;99.90;;;;;;4895087;29;20211;-70
2021/04/06 11:06:10;;;;;;;1.58;1.42;;;6.00;99.90;;;;;;4879845;29;20216;-69
2021/04/06 11:08:40;;;;;;;3.20;1.70;;;5.60;99.90;;;;;;4879046;29;20204;-69
2021/04/06 11:11:16;;;;;;;2.88;1.55;;;5.50;99.90;;;;;;4881723;29;20317;-70
2021/04/06 11:13:43;;;;;;;2.58;2.47;;;5.60;99.90;;;;;;4891395;29;20267;-70
2021/04/06 11:16:10;;;;;;;3.38;3.08;;;5.70;99.90;;;;;;4891101;29;20215;-70
2021/04/06 11:18:36;;;;;;;2.63;2.53;;;5.90;99.90;;;;;;4881580;29;20216;-71
2021/04/06 11:21:04;;;;;;;3.72;2.80;;;6.00;99.90;;;;;;4880374;29;20235;-70
2021/04/06 11:23:30;;;;;;;2.90;2.13;;;6.00;99.90;;;;;;4893516;29;20667;-70
2021/04/06 11:25:56;;;;;;;5.47;1.83;;;5.90;99.90;;;;;;4880645;29;20677;-70
2021/04/06 11:28:22;;;;;;;1.40;1.30;;;5.80;99.90;;;;;;4887916;29;20204;-70
2021/04/06 11:30:49;;;;;;;0.80;0.80;;;5.70;99.90;;;;;;4879341;29;20240;-70
2021/04/06 11:33:16;;;;;;;1.58;1.23;;;5.50;99.90;;;;;;4878691;29;20216;-70
2021/04/06 11:35:42;;;;;;;1.58;1.48;;;5.10;99.90;;;;;;4870047;29;20208;-69
2021/04/06 11:38:08;;;;;;;1.33;1.25;;;4.60;99.90;;;;;;4876635;29;20212;-70
2021/04/06 11:40:35;;;;;;;1.90;1.80;;;4.30;99.90;;;;;;4872311;29;20582;-70
2021/04/06 11:43:01;;;;;;;1.15;1.15;;;4.20;99.90;;;;;;4876392;29;20299;-70
2021/04/06 11:45:27;;;;;;;4.88;1.50;;;4.20;99.90;;;;;;4878003;29;20215;-70
2021/04/06 11:47:55;;;;;;;1.73;1.17;;;4.40;99.90;;;;;;4877155;29;20219;-70
2021/04/06 11:50:22;;;;;;;3.15;1.02;;;4.60;99.90;;;;;;4884166;29;20237;-70
2021/04/06 11:52:50;;;;;;;0.95;0.95;;;4.80;99.90;;;;;;4877436;29;20248;-70
2021/04/06 11:55:17;;;;;;;3.13;1.20;;;4.80;99.90;;;;;;4885400;29;20207;-70
2021/04/06 11:57:44;;;;;;;1.02;1.02;;;4.90;99.90;;;;;;4888584;29;20208;-70
2021/04/06 12:00:11;;;;;;;1.38;1.27;;;5.10;99.90;;;;;;4886865;29;20204;-71
2021/04/06 12:02:37;;;;;;;1.80;1.27;;;5.20;99.90;;;;;;4881185;29;20223;-70
2021/04/06 12:05:05;;;;;;;2.15;1.08;;;5.20;99.90;;;;;;4889766;29;20572;-70
2021/04/06 12:07:32;;;;;;;1.13;0.93;;;5.30;99.90;;;;;;4894003;29;20235;-70
2021/04/06 12:09:59;;;;;;;0.95;0.90;;;5.30;99.90;;;;;;4894940;29;20653;-70
2021/04/06 12:12:25;;;;;;;1.30;1.20;;;5.40;99.90;;;;;;4887142;29;20263;-72
2021/04/06 12:14:51;;;;;;;1.40;0.82;;;5.50;99.90;;;;;;4881560;29;20212;-72
2021/04/06 12:17:17;;;;;;;2.80;1.23;;;5.70;99.90;;;;;;4879174;29;20219;-69
2021/04/06 12:19:44;;;;;;;1.77;1.30;;;6.10;99.90;;;;;;4883418;29;20466;-69
2021/04/06 12:22:11;;;;;;;2.13;0.95;;;6.50;99.90;;;;;;4880671;29;20247;-69
2021/04/06 12:24:37;;;;;;;1.63;0.70;;;6.80;99.90;;;;;;4884014;29;20222;-71
2021/04/06 12:27:04;;;;;;;1.65;0.65;;;6.30;99.90;;;;;;4889373;29;20208;-72
2021/04/06 12:29:31;;;;;;;0.65;0.63;;;5.50;99.90;;;;;;4884688;29;20207;-72
2021/04/06 12:31:57;;;;;;;0.60;0.60;;;5.10;99.90;;;;;;4897962;29;20247;-72
2021/04/06 12:34:23;;;;;;;0.55;0.45;;;4.60;99.90;;;;;;4888301;29;20270;-71
2021/04/06 12:36:49;;;;;;;0.20;0.20;;;3.90;99.90;;;;;;4888967;29;20203;-71
2021/04/06 12:39:16;;;;;;;2.80;0.32;;;3.30;99.90;;;;;;4897003;29;20216;-70
2021/04/06 12:41:42;;;;;;;0.57;0.30;;;2.80;99.90;;;;;;4887621;29;20228;-70
2021/04/06 12:44:09;;;;;;;2.60;1.55;;;2.50;99.90;;;;;;4879684;29;20219;-70
2021/04/06 12:46:35;;;;;;;1.13;1.10;;;2.30;99.90;;;;;;4879380;29;20230;-70
2021/04/06 12:49:02;;;;;;;1.10;1.10;;;2.30;99.90;;;;;;4896887;29;20207;-71
2021/04/06 12:51:28;;;;;;;0.60;0.60;;;2.30;99.90;;;;;;4896388;29;20235;-70
2021/04/06 12:53:54;;;;;;;0.65;0.65;;;2.40;99.90;;;;;;4892770;29;20669;-70
2021/04/06 12:56:21;;;;;;;0.75;0.75;;;2.50;99.90;;;;;;4889831;29;20207;-71
2021/04/06 12:58:47;;;;;;;0.98;0.98;;;2.60;99.90;;;;;;4880178;29;20216;-70
2021/04/06 13:01:14;;;;;;;0.80;0.80;;;2.70;99.90;;;;;;4879753;29;20709;-71
2021/04/06 13:03:40;;;;;;;0.85;0.85;;;2.80;99.90;;;;;;4881641;29;20216;-70
2021/04/06 13:06:06;;;;;;;1.75;1.75;;;2.80;99.90;;;;;;4881679;29;20260;-71
2021/04/06 13:08:32;;;;;;;2.08;0.82;;;2.80;99.90;;;;;;4897751;29;20208;-70
2021/04/06 13:10:59;;;;;;;1.25;1.15;;;2.80;99.90;;;;;;4899994;29;20239;-71
2021/04/06 13:13:26;;;;;;;1.05;1.02;;;2.80;99.90;;;;;;4899152;29;20537;-70
2021/04/06 13:15:53;;;;;;;1.85;0.73;;;2.90;99.90;;;;;;4899120;29;20214;-72
2021/04/06 13:18:19;;;;;;;1.08;1.08;;;2.90;99.90;;;;;;4902627;29;20212;-72
2021/04/06 13:20:46;;;;;;;1.75;1.25;;;2.90;99.90;;;;;;4890345;29;20224;-72
2021/04/06 13:23:12;;;;;;;1.15;1.15;;;2.90;99.90;;;;;;4897929;29;20207;-70
2021/04/06 13:25:38;;;;;;;0.93;0.93;;;2.80;99.90;;;;;;4898794;29;20212;-71
2021/04/06 13:28:05;;;;;;;3.63;1.13;;;2.70;99.90;;;;;;4862720;29;20642;-71
2021/04/06 13:30:33;;;;;;;2.38;0.75;;;2.70;99.90;;;;;;4873770;29;20236;-71
2021/04/06 13:32:59;;;;;;;1.08;1.08;;;2.90;99.90;;;;;;4895630;29;20215;-73
2021/04/06 13:35:26;;;;;;;2.42;2.15;;;3.10;99.90;;;;;;4894743;29;20204;-71
2021/04/06 13:37:52;;;;;;;2.88;1.48;;;3.30;99.90;;;;;;4880665;29;20279;-71
2021/04/06 13:40:21;;;;;;;1.25;1.25;;;3.60;99.90;;;;;;4884445;29;20203;-71
2021/04/06 13:42:47;;;;;;;1.73;1.65;;;3.80;99.90;;;;;;4893991;29;20274;-70
2021/04/06 13:45:16;;;;;;;3.22;1.15;;;3.90;99.90;;;;;;4899082;29;20211;-71
2021/04/06 13:47:43;;;;;;;2.90;1.60;;;4.10;99.90;;;;;;4898770;29;20215;-71
2021/04/06 13:50:12;;;;;;;2.78;2.20;;;4.20;99.90;;;;;;4898587;29;20293;-71
2021/04/06 13:52:38;;;;;;;10.88;4.75;;;4.30;99.90;;;;;;4888941;29;20220;-71
2021/04/06 13:55:08;;;;;;;8.20;4.82;;;4.50;99.90;;;;;;4881364;29;20216;-72
2021/04/06 13:57:34;;;;;;;3.10;2.78;;;4.60;99.90;;;;;;4897194;29;20207;-71
2021/04/06 14:00:02;;;;;;;3.10;2.10;;;4.60;99.90;;;;;;4899367;29;20222;-70
2021/04/06 14:02:28;;;;;;;3.00;2.15;;;4.60;99.90;;;;;;4894714;29;20246;-69
2021/04/06 14:04:55;;;;;;;4.45;1.88;;;4.50;99.90;;;;;;4893516;29;20211;-69
2021/04/06 14:07:22;;;;;;;2.25;2.10;;;4.50;99.90;;;;;;4897717;29;20565;-70
2021/04/06 14:09:48;;;;;;;2.78;1.55;;;4.40;99.90;;;;;;4880209;29;20280;-69
2021/04/06 14:12:14;;;;;;;2.65;2.40;;;4.50;99.90;;;;;;4891751;29;20231;-70
2021/04/06 14:14:40;;;;;;;2.17;1.42;;;4.80;99.90;;;;;;4881958;29;20215;-69
2021/04/06 14:17:07;;;;;;;4.40;1.35;;;5.00;99.90;;;;;;4879880;29;20216;-69
2021/04/06 14:19:33;;;;;;;5.30;1.95;;;5.30;99.90;;;;;;4882230;29;20639;-70
2021/04/06 14:22:00;;;;;;;4.10;1.70;;;5.40;99.90;;;;;;4884616;29;20654;-70
2021/04/06 14:24:26;;;;;;;3.03;1.55;;;5.30;99.90;;;;;;4888781;29;20218;-70
2021/04/06 14:26:53;;;;;;;2.40;1.50;;;5.20;99.90;;;;;;4898832;29;20204;-69
2021/04/06 14:29:19;;;;;;;2.03;1.20;;;5.20;99.90;;;;;;4888869;29;20216;-68
2021/04/06 14:31:45;;;;;;;2.80;1.33;;;5.20;99.90;;;;;;4891713;29;20724;-69
2021/04/06 14:34:12;;;;;;;2.10;1.75;;;5.20;99.90;;;;;;4897296;29;20211;-69
2021/04/06 14:36:38;;;;;;;2.38;1.67;;;5.20;99.90;;;;;;4894112;29;20281;-69
2021/04/06 14:39:06;;;;;;;1.40;1.30;;;5.20;99.90;;;;;;4873507;29;20666;-70
2021/04/06 14:41:32;;;;;;;1.65;1.20;;;5.20;99.90;;;;;;4872901;29;20227;-70
2021/04/06 14:43:59;;;;;;;0.95;0.82;;;5.10;99.90;;;;;;4886955;29;20215;-70
2021/04/06 14:46:25;;;;;;;1.40;0.90;;;4.90;99.90;;;;;;4882457;29;20212;-70
2021/04/06 14:48:57;;;;;;;0.85;0.77;;;4.60;99.90;;;;;;4886686;29;20252;-70
2021/04/06 14:51:25;;;;;;;0.80;0.80;;;4.20;99.90;;;;;;4897182;29;20230;-70
2021/04/06 14:53:51;;;;;;;2.47;0.80;;;4.00;99.90;;;;;;4886738;29;20214;-69
2021/04/06 14:56:20;;;;;;;0.80;0.80;;;4.10;99.90;;;;;;4886496;29;20236;-69
2021/04/06 14:58:49;;;;;;;1.27;1.05;;;4.10;99.90;;;;;;4897633;29;20656;-70
2021/04/06 15:01:15;;;;;;;0.90;0.90;;;4.10;99.90;;;;;;4889842;29;20230;-70
2021/04/06 15:03:47;;;;;;;3.13;0.68;;;4.20;99.90;;;;;;4887734;29;20204;-71
2021/04/06 15:06:13;;;;;;;0.65;0.65;;;4.40;99.90;;;;;;4890785;29;20203;-71
2021/04/06 15:08:41;;;;;;;3.22;0.50;;;4.50;99.90;;;;;;4896244;29;20214;-71
2021/04/06 15:11:07;;;;;;;1.90;0.68;;;4.60;99.90;;;;;;4893079;29;20638;-71
2021/04/06 15:13:36;;;;;;;0.40;0.40;;;4.70;99.90;;;;;;4891296;29;20222;-71
2021/04/06 15:16:05;;;;;;;0.50;0.50;;;4.70;99.90;;;;;;4898246;29;20208;-71
2021/04/06 15:18:34;;;;;;;0.70;0.70;;;4.60;99.90;;;;;;4898339;29;20207;-71
2021/04/06 15:21:00;;;;;;;0.90;0.85;;;4.60;99.90;;;;;;4898736;29;20695;-71
2021/04/06 15:23:29;;;;;;;2.50;0.98;;;4.60;99.90;;;;;;4890455;29;20314;-71
2021/04/06 15:25:57;;;;;;;0.60;0.60;;;4.70;99.90;;;;;;4886559;29;20738;-71
2021/04/06 15:28:24;;;;;;;1.35;1.25;;;4.70;99.90;;;;;;4887200;29;20208;-71
2021/04/06 15:30:52;;;;;;;1.08;1.08;;;4.70;99.90;;;;;;4889290;29;20326;-72
2021/04/06 15:33:20;;;;;;;5.28;2.90;;;4.70;99.90;;;;;;4877953;29;20212;-72
2021/04/06 15:35:47;;;;;;;9.73;4.55;;;4.70;99.90;;;;;;4891386;29;20214;-72
2021/04/06 15:38:19;;;;;;;0.88;0.88;;;4.70;99.90;;;;;;4895091;29;20203;-72
2021/04/06 15:40:48;;;;;;;1.20;1.20;;;4.70;99.90;;;;;;4881167;29;20267;-72
2021/04/06 15:43:15;;;;;;;0.88;0.88;;;4.70;99.90;;;;;;4882053;29;20211;-72
2021/04/06 15:45:42;;;;;;;0.85;0.70;;;4.60;99.90;;;;;;4883617;29;20582;-71
2021/04/06 15:48:10;;;;;;;1.95;1.15;;;4.50;99.90;;;;;;4889893;29;20212;-72
2021/04/06 15:50:39;;;;;;;2.25;1.15;;;4.50;99.90;;;;;;4884898;29;20312;-72
2021/04/06 15:53:09;;;;;;;1.60;0.82;;;4.50;99.90;;;;;;4894428;29;20211;-72
2021/04/06 15:55:35;;;;;;;1.08;1.00;;;4.50;99.90;;;;;;4882705;29;20321;-72
2021/04/06 15:58:02;;;;;;;1.33;1.33;;;4.60;99.90;;;;;;4878021;29;20219;-72
2021/04/06 16:00:30;;;;;;;0.63;0.63;;;4.60;99.90;;;;;;4880193;29;20220;-72
2021/04/06 16:02:57;;;;;;;1.08;1.05;;;4.70;99.90;;;;;;4881942;29;20626;-72
2021/04/06 16:05:26;;;;;;;3.75;1.00;;;4.80;99.90;;;;;;4899281;29;20211;-71
2021/04/06 16:07:53;;;;;;;1.80;1.05;;;5.00;99.90;;;;;;4877785;29;20208;-72
2021/04/06 16:10:21;;;;;;;0.80;0.80;;;5.20;99.90;;;;;;4879894;29;20223;-72
2021/04/06 16:12:48;;;;;;;1.67;1.25;;;5.30;99.90;;;;;;4895002;29;20214;-72
2021/04/06 16:15:15;;;;;;;2.90;0.75;;;5.30;99.90;;;;;;4883122;29;20681;-72
2021/04/06 16:17:44;;;;;;;0.70;0.70;;;5.10;99.90;;;;;;4886058;29;20740;-72
2021/04/06 16:20:12;;;;;;;2.55;1.63;;;5.00;99.90;;;;;;4898912;29;20207;-72
2021/04/06 16:22:39;;;;;;;4.15;1.08;;;4.90;99.90;;;;;;4882579;29;20211;-70
2021/04/06 16:25:08;;;;;;;1.95;1.55;;;4.70;99.90;;;;;;4879823;29;20288;-73
2021/04/06 16:27:34;;;;;;;7.13;1.92;;;4.60;99.90;;;;;;4883220;29;20612;-72
2021/04/06 16:30:01;;;;;;;1.48;1.48;;;4.40;99.90;;;;;;4896646;29;20340;-72
2021/04/06 16:32:27;;;;;;;0.50;0.50;;;4.10;99.90;;;;;;4887452;29;20235;-72
2021/04/06 16:34:53;;;;;;;0.95;0.95;;;3.90;99.90;;;;;;4876394;29;20300;-71
2021/04/06 16:37:19;;;;;;;1.60;0.88;;;3.70;99.90;;;;;;4877508;29;20275;-70
2021/04/06 16:39:47;;;;;;;4.18;0.82;;;3.60;99.90;;;;;;4883534;29;20282;-72
2021/04/06 16:42:14;;;;;;;0.95;0.82;;;3.40;99.90;;;;;;4876862;29;20593;-72
2021/04/06 16:44:40;;;;;;;1.25;1.13;;;3.40;99.90;;;;;;4881337;29;20212;-73
2021/04/06 16:47:08;;;;;;;1.95;1.15;;;3.40;99.90;;;;;;4882394;29;20302;-73
2021/04/06 16:49:35;;;;;;;3.08;1.10;;;3.30;99.90;;;;;;4883308;29;20211;-71
2021/04/06 16:52:01;;;;;;;1.80;1.70;;;3.20;99.90;;;;;;4882231;29;20743;-71
2021/04/06 16:54:28;;;;;;;1.65;1.65;;;3.00;99.90;;;;;;4882515;29;20211;-72
2021/04/06 16:56:55;;;;;;;2.85;1.80;;;3.00;99.90;;;;;;4883329;29;20208;-72
2021/04/06 16:59:22;;;;;;;1.33;1.23;;;2.90;99.90;;;;;;4882929;29;20204;-70
2021/04/06 17:01:49;;;;;;;1.33;1.33;;;2.90;99.90;;;;;;4881929;29;20240;-72
2021/04/06 17:04:15;;;;;;;1.58;1.52;;;2.90;99.90;;;;;;4882975;29;20299;-72
2021/04/06 17:06:42;;;;;;;3.00;2.80;;;2.90;99.90;;;;;;4887208;29;20275;-72